createdAt,value
2022-11-10T00:00:15.252Z,63.20
2022-11-10T00:01:18.518Z,63.30
2022-11-10T00:02:20.643Z,63.30
2022-11-10T00:03:24.943Z,63.30
2022-11-10T00:04:27.119Z,63.40
2022-11-10T00:05:31.262Z,63.40
2022-11-10T00:06:34.722Z,63.40
2022-11-10T00:07:38.597Z,63.50
2022-11-10T00:08:41.980Z,63.60
2022-11-10T00:09:44.169Z,63.60
2022-11-10T00:10:59.139Z,63.70
2022-11-10T00:12:01.308Z,63.80
2022-11-10T00:13:04.946Z,63.90
2022-11-10T00:14:26.645Z,64.20
2022-11-10T00:15:48.247Z,64.20
2022-11-10T00:17:04.289Z,64.20
2022-11-10T00:18:07.457Z,64.20
2022-11-10T00:19:09.678Z,64.20
2022-11-10T00:20:14.049Z,64.40
2022-11-10T00:21:18.894Z,64.30
2022-11-10T00:22:23.991Z,64.80
2022-11-10T00:23:32.002Z,64.50
2022-11-10T00:24:34.205Z,64.50
2022-11-10T00:25:37.421Z,64.40
2022-11-10T00:26:39.608Z,64.20
2022-11-10T00:27:42.780Z,64.20
2022-11-10T00:28:46.683Z,64.20
2022-11-10T00:29:48.802Z,64.20
2022-11-10T00:30:52.001Z,64.20
2022-11-10T00:31:54.184Z,64.10
2022-11-10T00:32:57.476Z,64.60
2022-11-10T00:34:01.052Z,65.10
2022-11-10T00:35:11.061Z,65.40
2022-11-10T00:36:13.254Z,65.70
2022-11-10T00:37:16.464Z,66.10
2022-11-10T00:38:18.539Z,66.30
2022-11-10T00:39:23.051Z,66.50
2022-11-10T00:40:25.161Z,66.80
2022-11-10T00:41:28.410Z,66.90
2022-11-10T00:42:30.554Z,66.70
2022-11-10T00:43:34.472Z,66.40
2022-11-10T00:44:37.317Z,66.40
2022-11-10T00:45:43.676Z,66.20
2022-11-10T00:46:45.915Z,66.00
2022-11-10T00:47:49.204Z,66.20
2022-11-10T00:48:51.422Z,66.10
2022-11-10T00:49:54.553Z,65.90
2022-11-10T00:50:57.969Z,65.80
2022-11-10T00:52:00.134Z,65.90
2022-11-10T00:53:03.359Z,66.00
2022-11-10T00:54:05.814Z,66.10
2022-11-10T00:55:10.751Z,66.10
2022-11-10T00:56:13.013Z,66.00
2022-11-10T00:57:16.065Z,65.90
2022-11-10T00:58:18.184Z,65.70
2022-11-10T00:59:21.252Z,65.50
2022-11-10T01:00:23.505Z,65.40
2022-11-10T01:01:27.485Z,65.30
2022-11-10T01:02:29.672Z,65.10
2022-11-10T01:03:34.151Z,64.90
2022-11-10T01:04:36.273Z,64.90
2022-11-10T01:05:39.888Z,65.00
2022-11-10T01:06:42.051Z,65.40
2022-11-10T01:07:45.188Z,64.80
2022-11-10T01:08:49.074Z,64.80
2022-11-10T01:09:51.249Z,64.60
2022-11-10T01:11:02.976Z,64.60
2022-11-10T01:12:05.368Z,64.50
2022-11-10T01:13:08.433Z,64.50
2022-11-10T01:14:10.620Z,64.40
2022-11-10T01:15:13.741Z,64.30
2022-11-10T01:16:19.188Z,64.30
2022-11-10T01:17:22.315Z,64.30
2022-11-10T01:18:25.991Z,64.20
2022-11-10T01:19:31.885Z,64.60
2022-11-10T01:20:35.405Z,64.60
2022-11-10T01:21:38.615Z,64.60
2022-11-10T01:22:40.838Z,64.80
2022-11-10T01:23:43.907Z,65.20
2022-11-10T01:24:46.025Z,65.10
2022-11-10T01:25:49.144Z,65.10
2022-11-10T01:26:52.644Z,65.20
2022-11-10T01:27:55.749Z,65.60
2022-11-10T01:28:58.141Z,65.50
2022-11-10T01:30:01.300Z,65.50
2022-11-10T01:31:06.101Z,65.60
2022-11-10T01:32:09.324Z,65.70
2022-11-10T01:33:11.690Z,66.00
2022-11-10T01:34:14.855Z,66.10
2022-11-10T01:35:17.076Z,66.20
2022-11-10T01:36:20.204Z,66.50
2022-11-10T01:37:22.329Z,66.50
2022-11-10T01:38:28.404Z,66.70
2022-11-10T01:39:30.559Z,66.80
2022-11-10T01:40:33.822Z,66.80
2022-11-10T01:41:36.007Z,66.80
2022-11-10T01:42:50.307Z,66.70
2022-11-10T01:43:52.477Z,66.80
2022-11-10T01:45:33.237Z,66.70
2022-11-10T01:46:36.311Z,66.90
2022-11-10T01:47:38.503Z,66.80
2022-11-10T01:48:47.526Z,66.80
2022-11-10T01:49:50.130Z,66.90
2022-11-10T01:50:53.767Z,66.70
2022-11-10T01:52:01.476Z,66.70
2022-11-10T01:53:10.577Z,66.60
2022-11-10T01:54:16.205Z,66.70
2022-11-10T01:55:20.069Z,67.40
2022-11-10T01:56:25.801Z,66.80
2022-11-10T01:57:28.502Z,66.80
2022-11-10T01:58:40.127Z,66.70
2022-11-10T01:59:48.354Z,66.60
2022-11-10T02:00:52.267Z,66.70
2022-11-10T02:02:03.076Z,66.90
2022-11-10T02:03:13.352Z,66.60
2022-11-10T02:04:19.249Z,66.70
2022-11-10T02:05:23.509Z,66.80
2022-11-10T02:06:35.095Z,66.90
2022-11-10T02:07:39.997Z,66.70
2022-11-10T02:08:45.425Z,66.80
2022-11-10T02:09:47.746Z,67.10
2022-11-10T02:10:50.868Z,67.10
2022-11-10T02:11:56.250Z,67.00
2022-11-10T02:12:59.787Z,66.70
2022-11-10T02:14:04.472Z,66.50
2022-11-10T02:15:11.335Z,66.50
2022-11-10T02:16:13.817Z,66.40
2022-11-10T02:17:17.672Z,66.50
2022-11-10T02:18:20.461Z,66.40
2022-11-10T02:19:26.069Z,66.30
2022-11-10T02:20:28.173Z,66.20
2022-11-10T02:21:32.658Z,66.30
2022-11-10T02:22:34.752Z,66.50
2022-11-10T02:23:52.605Z,66.60
2022-11-10T02:24:54.720Z,66.60
2022-11-10T02:25:58.269Z,66.50
2022-11-10T02:27:01.621Z,66.60
2022-11-10T02:28:03.772Z,66.60
2022-11-10T02:29:06.840Z,66.40
2022-11-10T02:30:09.860Z,66.50
2022-11-10T02:31:13.030Z,66.40
2022-11-10T02:32:15.289Z,66.50
2022-11-10T02:33:19.130Z,66.40
2022-11-10T02:34:22.453Z,66.60
2022-11-10T02:35:24.571Z,66.50
2022-11-10T02:36:27.745Z,66.40
2022-11-10T02:37:31.454Z,66.60
2022-11-10T02:38:34.825Z,66.70
2022-11-10T02:39:37.443Z,66.80
2022-11-10T02:40:40.928Z,66.70
2022-11-10T02:41:43.002Z,66.70
2022-11-10T02:42:46.102Z,66.70
2022-11-10T02:43:48.866Z,66.60
2022-11-10T02:44:52.341Z,66.70
2022-11-10T02:45:54.451Z,66.60
2022-11-10T02:46:57.673Z,66.50
2022-11-10T02:47:59.897Z,66.40
2022-11-10T02:49:03.796Z,66.40
2022-11-10T02:50:06.733Z,66.30
2022-11-10T02:51:11.865Z,66.30
2022-11-10T02:52:14.026Z,66.10
2022-11-10T02:53:18.745Z,66.10
2022-11-10T02:54:21.421Z,66.00
2022-11-10T02:55:24.557Z,65.90
2022-11-10T02:56:26.661Z,65.90
2022-11-10T02:57:29.794Z,65.90
2022-11-10T02:58:32.070Z,65.90
2022-11-10T02:59:35.191Z,65.90
2022-11-10T03:00:37.293Z,65.80
2022-11-10T03:01:40.497Z,66.40
2022-11-10T03:02:42.688Z,65.90
2022-11-10T03:03:45.809Z,66.00
2022-11-10T03:04:47.896Z,66.10
2022-11-10T03:05:51.064Z,66.10
2022-11-10T03:06:53.233Z,66.20
2022-11-10T03:07:58.067Z,66.20
2022-11-10T03:09:02.746Z,66.20
2022-11-10T03:10:05.864Z,66.20
2022-11-10T03:11:08.968Z,66.00
2022-11-10T03:12:11.116Z,66.10
2022-11-10T03:13:14.254Z,66.10
2022-11-10T03:14:16.410Z,66.10
2022-11-10T03:15:19.501Z,66.20
2022-11-10T03:16:21.610Z,66.20
2022-11-10T03:17:24.854Z,66.20
2022-11-10T03:18:26.970Z,66.30
2022-11-10T03:19:32.118Z,66.50
2022-11-10T03:20:34.264Z,66.50
2022-11-10T03:21:37.644Z,66.60
2022-11-10T03:22:39.757Z,66.60
2022-11-10T03:23:42.852Z,66.60
2022-11-10T03:24:46.584Z,66.60
2022-11-10T03:25:49.781Z,66.90
2022-11-10T03:26:51.966Z,66.90
2022-11-10T03:27:55.221Z,66.80
2022-11-10T03:28:58.298Z,67.00
2022-11-10T03:30:00.630Z,67.10
2022-11-10T03:31:03.736Z,67.30
2022-11-10T03:32:05.954Z,67.20
2022-11-10T03:33:09.475Z,67.00
2022-11-10T03:34:11.629Z,67.00
2022-11-10T03:35:14.874Z,66.90
2022-11-10T03:36:16.984Z,66.80
2022-11-10T03:37:20.244Z,66.70
2022-11-10T03:38:23.561Z,66.50
2022-11-10T03:39:25.657Z,66.70
2022-11-10T03:40:30.065Z,66.70
2022-11-10T03:41:32.169Z,66.70
2022-11-10T03:42:35.447Z,66.60
2022-11-10T03:43:37.686Z,66.40
2022-11-10T03:44:40.967Z,66.20
2022-11-10T03:45:44.946Z,66.10
2022-11-10T03:46:51.535Z,66.30
2022-11-10T03:47:54.024Z,66.40
2022-11-10T03:48:57.187Z,66.50
2022-11-10T03:49:59.301Z,66.60
2022-11-10T03:51:02.434Z,66.80
2022-11-10T03:52:04.868Z,67.10
2022-11-10T03:53:08.274Z,67.10
2022-11-10T03:54:10.425Z,67.30
2022-11-10T03:55:15.787Z,67.30
2022-11-10T03:56:19.321Z,67.30
2022-11-10T03:57:22.447Z,67.30
2022-11-10T03:58:24.514Z,67.30
2022-11-10T03:59:27.683Z,67.30
2022-11-10T04:00:29.819Z,67.20
2022-11-10T04:01:33.051Z,67.40
2022-11-10T04:02:39.007Z,67.40
2022-11-10T04:03:42.164Z,67.50
2022-11-10T04:05:02.665Z,67.60
2022-11-10T04:06:23.504Z,67.40
2022-11-10T04:07:44.255Z,67.40
2022-11-10T04:09:02.304Z,67.40
2022-11-10T04:10:05.283Z,67.50
2022-11-10T04:11:08.442Z,67.80
2022-11-10T04:12:30.364Z,68.00
2022-11-10T04:13:51.103Z,68.10
2022-11-10T04:15:11.763Z,68.30
2022-11-10T04:16:15.282Z,68.50
2022-11-10T04:17:17.560Z,68.60
2022-11-10T04:18:25.568Z,68.80
2022-11-10T04:19:28.084Z,69.00
2022-11-10T04:20:31.168Z,68.90
2022-11-10T04:21:33.423Z,68.80
2022-11-10T04:23:02.492Z,68.70
2022-11-10T04:24:05.856Z,68.70
2022-11-10T04:25:08.540Z,68.60
2022-11-10T04:26:33.314Z,68.60
2022-11-10T04:27:38.633Z,68.60
2022-11-10T04:28:42.587Z,68.60
2022-11-10T04:29:44.769Z,68.50
2022-11-10T04:30:47.872Z,68.60
2022-11-10T04:31:50.988Z,68.60
2022-11-10T04:32:54.035Z,69.20
2022-11-10T04:33:58.522Z,68.60
2022-11-10T04:35:00.677Z,68.60
2022-11-10T04:36:04.024Z,68.50
2022-11-10T04:37:07.223Z,68.70
2022-11-10T04:38:10.264Z,68.60
2022-11-10T04:39:13.759Z,68.60
2022-11-10T04:40:16.211Z,68.50
2022-11-10T04:41:19.574Z,68.60
2022-11-10T04:42:21.657Z,68.80
2022-11-10T04:43:26.296Z,68.80
2022-11-10T04:44:28.436Z,68.90
2022-11-10T04:45:31.572Z,69.30
2022-11-10T04:46:36.756Z,68.90
2022-11-10T04:47:38.893Z,68.70
2022-11-10T04:48:41.972Z,68.60
2022-11-10T04:49:44.081Z,68.60
2022-11-10T04:50:47.473Z,68.40
2022-11-10T04:51:49.596Z,68.30
2022-11-10T04:52:52.737Z,68.20
2022-11-10T04:53:55.982Z,68.10
2022-11-10T04:54:58.097Z,68.10
2022-11-10T04:56:01.319Z,68.20
2022-11-10T04:57:03.643Z,68.10
2022-11-10T04:58:06.786Z,68.00
2022-11-10T04:59:11.256Z,68.00
2022-11-10T05:00:14.461Z,68.00
2022-11-10T05:01:21.018Z,67.80
2022-11-10T05:02:23.220Z,67.90
2022-11-10T05:03:26.927Z,67.80
2022-11-10T05:04:29.065Z,67.80
2022-11-10T05:05:33.014Z,67.80
2022-11-10T05:06:35.133Z,67.80
2022-11-10T05:07:38.294Z,67.60
2022-11-10T05:08:43.039Z,67.60
2022-11-10T05:09:45.151Z,67.70
2022-11-10T05:10:48.326Z,67.80
2022-11-10T05:11:51.437Z,67.50
2022-11-10T05:12:54.726Z,67.70
2022-11-10T05:13:57.813Z,67.80
2022-11-10T05:15:01.256Z,67.70
2022-11-10T05:16:04.575Z,67.60
2022-11-10T05:17:06.704Z,67.80
2022-11-10T05:18:09.878Z,68.10
2022-11-10T05:19:12.059Z,68.40
2022-11-10T05:20:15.232Z,68.20
2022-11-10T05:21:18.377Z,68.10
2022-11-10T05:22:20.502Z,67.90
2022-11-10T05:23:38.594Z,67.80
2022-11-10T05:24:41.710Z,67.60
2022-11-10T05:25:44.810Z,67.50
2022-11-10T05:26:47.919Z,67.60
2022-11-10T05:27:50.015Z,67.80
2022-11-10T05:28:53.196Z,68.10
2022-11-10T05:29:55.498Z,67.80
2022-11-10T05:30:59.949Z,68.00
2022-11-10T05:32:02.073Z,67.80
2022-11-10T05:33:06.250Z,67.70
2022-11-10T05:34:08.390Z,67.70
2022-11-10T05:35:11.475Z,68.30
2022-11-10T05:36:13.774Z,67.80
2022-11-10T05:37:16.829Z,67.70
2022-11-10T05:38:19.991Z,67.70
2022-11-10T05:39:22.102Z,67.70
2022-11-10T05:40:25.728Z,67.70
2022-11-10T05:41:28.874Z,67.70
2022-11-10T05:42:30.980Z,67.70
2022-11-10T05:43:34.080Z,67.60
2022-11-10T05:44:36.220Z,67.70
2022-11-10T05:45:39.416Z,67.70
2022-11-10T05:46:43.094Z,68.30
2022-11-10T05:47:46.359Z,67.70
2022-11-10T05:48:48.496Z,67.60
2022-11-10T05:49:51.713Z,67.60
2022-11-10T05:50:53.876Z,67.70
2022-11-10T05:51:56.990Z,68.30
2022-11-10T05:52:59.130Z,67.50
2022-11-10T05:54:02.190Z,67.40
2022-11-10T05:55:05.032Z,67.50
2022-11-10T05:56:09.988Z,67.60
2022-11-10T05:57:12.414Z,67.40
2022-11-10T05:58:15.531Z,67.20
2022-11-10T05:59:17.719Z,67.00
2022-11-10T06:00:23.017Z,66.90
2022-11-10T06:01:26.130Z,66.90
2022-11-10T06:02:29.634Z,66.90
2022-11-10T06:03:32.823Z,67.10
2022-11-10T06:04:34.902Z,67.20
2022-11-10T06:05:38.077Z,67.70
2022-11-10T06:06:40.198Z,67.10
2022-11-10T06:07:43.289Z,67.10
2022-11-10T06:08:45.444Z,67.10
2022-11-10T06:09:48.604Z,67.30
2022-11-10T06:10:51.764Z,67.30
2022-11-10T06:11:53.883Z,67.30
2022-11-10T06:12:57.002Z,67.90
2022-11-10T06:14:00.825Z,67.20
2022-11-10T06:15:04.262Z,67.40
2022-11-10T06:16:07.720Z,67.40
2022-11-10T06:17:09.834Z,67.30
2022-11-10T06:18:14.298Z,67.10
2022-11-10T06:19:16.463Z,67.00
2022-11-10T06:20:20.158Z,67.00
2022-11-10T06:21:23.283Z,67.00
2022-11-10T06:22:25.382Z,67.00
2022-11-10T06:23:30.065Z,67.00
2022-11-10T06:24:34.948Z,66.90
2022-11-10T06:25:40.711Z,66.90
2022-11-10T06:26:43.766Z,66.90
2022-11-10T06:27:45.923Z,66.90
2022-11-10T06:28:49.052Z,67.10
2022-11-10T06:29:51.190Z,67.70
2022-11-10T06:30:54.366Z,67.60
2022-11-10T06:31:57.407Z,67.60
2022-11-10T06:33:01.016Z,67.60
2022-11-10T06:34:04.441Z,67.70
2022-11-10T06:35:07.951Z,68.00
2022-11-10T06:36:11.112Z,68.20
2022-11-10T06:37:13.216Z,68.60
2022-11-10T06:38:16.396Z,68.70
2022-11-10T06:39:18.501Z,68.70
2022-11-10T06:40:21.615Z,68.70
2022-11-10T06:41:25.441Z,68.60
2022-11-10T06:42:28.731Z,68.50
2022-11-10T06:43:31.893Z,68.60
2022-11-10T06:44:34.062Z,69.10
2022-11-10T06:45:38.468Z,68.70
2022-11-10T06:46:42.399Z,68.70
2022-11-10T06:47:45.915Z,69.00
2022-11-10T06:48:48.009Z,69.00
2022-11-10T06:49:52.534Z,69.30
2022-11-10T06:50:55.666Z,69.40
2022-11-10T06:51:57.804Z,69.60
2022-11-10T06:53:02.013Z,70.20
2022-11-10T06:54:04.441Z,70.00
2022-11-10T06:55:08.398Z,70.10
2022-11-10T06:56:10.530Z,70.30
2022-11-10T06:57:13.852Z,70.30
2022-11-10T06:58:17.454Z,70.30
2022-11-10T06:59:19.557Z,70.30
2022-11-10T07:00:23.206Z,71.20
2022-11-10T07:01:26.763Z,70.70
2022-11-10T07:02:28.967Z,70.80
2022-11-10T07:03:32.075Z,70.80
2022-11-10T07:04:34.223Z,71.50
2022-11-10T07:05:38.782Z,70.90
2022-11-10T07:06:40.920Z,71.10
2022-11-10T07:07:44.001Z,71.30
2022-11-10T07:08:46.070Z,71.60
2022-11-10T07:09:49.184Z,71.70
2022-11-10T07:10:53.636Z,71.80
2022-11-10T07:11:57.335Z,71.90
2022-11-10T07:12:59.933Z,71.80
2022-11-10T07:14:03.030Z,71.70
2022-11-10T07:15:05.820Z,71.70
2022-11-10T07:16:10.073Z,71.70
2022-11-10T07:17:12.197Z,71.60
2022-11-10T07:18:15.389Z,71.40
2022-11-10T07:19:17.492Z,71.30
2022-11-10T07:20:20.630Z,71.30
2022-11-10T07:21:25.074Z,71.10
2022-11-10T07:22:28.179Z,71.00
2022-11-10T07:23:30.517Z,70.90
2022-11-10T07:24:33.635Z,70.90
2022-11-10T07:25:38.306Z,70.90
2022-11-10T07:26:40.395Z,70.90
2022-11-10T07:27:43.829Z,70.90
2022-11-10T07:28:47.039Z,70.80
2022-11-10T07:29:49.129Z,71.40
2022-11-10T07:30:52.237Z,70.80
2022-11-10T07:31:55.430Z,70.60
2022-11-10T07:33:01.944Z,70.70
2022-11-10T07:34:05.147Z,70.90
2022-11-10T07:35:07.813Z,70.90
2022-11-10T07:36:11.040Z,70.90
2022-11-10T07:37:14.513Z,71.10
2022-11-10T07:38:17.612Z,70.90
2022-11-10T07:39:19.770Z,71.00
2022-11-10T07:40:23.214Z,71.50
2022-11-10T07:41:26.342Z,70.80
2022-11-10T07:42:29.453Z,70.90
2022-11-10T07:43:31.575Z,70.80
2022-11-10T07:44:34.833Z,70.90
2022-11-10T07:45:38.320Z,70.90
2022-11-10T07:46:41.402Z,70.90
2022-11-10T07:47:44.601Z,71.00
2022-11-10T07:48:47.744Z,71.00
2022-11-10T07:49:49.847Z,70.90
2022-11-10T07:50:53.370Z,71.10
2022-11-10T07:51:56.606Z,71.40
2022-11-10T07:53:09.524Z,71.20
2022-11-10T07:54:12.941Z,70.90
2022-11-10T07:55:15.185Z,70.40
2022-11-10T07:56:18.624Z,70.30
2022-11-10T07:57:20.718Z,70.20
2022-11-10T07:58:23.880Z,70.30
2022-11-10T07:59:26.039Z,70.20
2022-11-10T08:00:30.105Z,69.90
2022-11-10T08:01:34.038Z,70.10
2022-11-10T08:02:36.203Z,70.00
2022-11-10T08:03:39.272Z,70.20
2022-11-10T08:04:41.539Z,70.00
2022-11-10T08:05:45.138Z,70.00
2022-11-10T08:06:47.331Z,70.10
2022-11-10T08:07:50.568Z,70.10
2022-11-10T08:08:55.021Z,69.90
2022-11-10T08:09:58.222Z,69.70
2022-11-10T08:11:01.306Z,69.90
2022-11-10T08:12:05.062Z,70.10
2022-11-10T08:13:11.031Z,69.60
2022-11-10T08:14:14.112Z,69.60
2022-11-10T08:15:16.232Z,69.50
2022-11-10T08:16:19.342Z,69.20
2022-11-10T08:17:21.548Z,69.10
2022-11-10T08:18:25.142Z,69.10
2022-11-10T08:19:27.416Z,68.80
2022-11-10T08:20:31.861Z,68.80
2022-11-10T08:21:34.030Z,68.80
2022-11-10T08:22:37.149Z,68.60
2022-11-10T08:23:40.262Z,68.40
2022-11-10T08:24:43.802Z,68.60
2022-11-10T08:25:47.959Z,68.50
2022-11-10T08:26:50.094Z,69.20
2022-11-10T08:27:59.074Z,68.60
2022-11-10T08:29:02.313Z,68.70
2022-11-10T08:30:05.489Z,68.80
2022-11-10T08:31:08.539Z,68.50
2022-11-10T08:32:10.636Z,68.50
2022-11-10T08:33:16.154Z,68.40
2022-11-10T08:34:19.264Z,68.70
2022-11-10T08:35:21.519Z,68.40
2022-11-10T08:36:24.669Z,68.50
2022-11-10T08:37:27.860Z,68.50
2022-11-10T08:38:31.040Z,68.20
2022-11-10T08:39:40.055Z,68.30
2022-11-10T08:40:45.810Z,68.60
2022-11-10T08:41:47.939Z,68.80
2022-11-10T08:42:59.765Z,68.80
2022-11-10T08:44:02.851Z,68.50
2022-11-10T08:45:05.939Z,68.80
2022-11-10T08:46:09.102Z,68.60
2022-11-10T08:47:11.220Z,68.10
2022-11-10T08:48:16.534Z,68.30
2022-11-10T08:49:18.690Z,68.00
2022-11-10T08:50:21.775Z,67.50
2022-11-10T08:51:24.952Z,68.40
2022-11-10T08:52:27.263Z,68.00
2022-11-10T08:53:30.386Z,67.80
2022-11-10T08:54:33.512Z,68.00
2022-11-10T08:55:36.669Z,68.20
2022-11-10T08:56:41.210Z,68.20
2022-11-10T08:57:44.270Z,68.10
2022-11-10T08:58:53.158Z,68.20
2022-11-10T08:59:56.637Z,68.50
2022-11-10T09:00:59.753Z,68.90
2022-11-10T09:02:01.915Z,69.00
2022-11-10T09:03:07.316Z,68.60
2022-11-10T09:04:09.482Z,68.80
2022-11-10T09:05:12.600Z,68.30
2022-11-10T09:06:14.689Z,68.20
2022-11-10T09:07:17.870Z,67.80
2022-11-10T09:08:20.023Z,67.00
2022-11-10T09:09:23.195Z,66.80
2022-11-10T09:10:26.393Z,67.00
2022-11-10T09:11:29.479Z,67.20
2022-11-10T09:12:32.907Z,66.50
2022-11-10T09:13:36.431Z,67.00
2022-11-10T09:14:38.721Z,66.50
2022-11-10T09:15:43.492Z,66.30
2022-11-10T09:16:45.661Z,67.00
2022-11-10T09:17:48.743Z,66.20
2022-11-10T09:18:50.844Z,66.70
2022-11-10T09:19:53.994Z,67.00
2022-11-10T09:20:57.497Z,66.80
2022-11-10T09:21:59.580Z,66.60
2022-11-10T09:23:06.523Z,66.60
2022-11-10T09:24:09.813Z,66.70
2022-11-10T09:25:12.940Z,66.70
2022-11-10T09:26:16.038Z,66.70
2022-11-10T09:27:19.692Z,66.80
2022-11-10T09:28:24.888Z,66.80
2022-11-10T09:29:26.966Z,66.60
2022-11-10T09:30:30.172Z,66.80
2022-11-10T09:31:33.331Z,66.70
2022-11-10T09:32:35.677Z,66.50
2022-11-10T09:33:38.862Z,66.80
2022-11-10T09:34:41.056Z,66.50
2022-11-10T09:35:44.449Z,66.40
2022-11-10T09:36:47.522Z,65.70
2022-11-10T09:37:50.650Z,66.10
2022-11-10T09:38:52.765Z,66.40
2022-11-10T09:40:01.092Z,66.00
2022-11-10T09:41:07.793Z,66.00
2022-11-10T09:42:28.691Z,66.10
2022-11-10T09:43:42.225Z,66.80
2022-11-10T09:44:55.213Z,66.00
2022-11-10T09:46:05.618Z,66.80
2022-11-10T09:47:18.962Z,66.10
2022-11-10T09:48:37.814Z,65.40
2022-11-10T09:49:46.681Z,65.70
2022-11-10T09:50:56.646Z,65.30
2022-11-10T09:52:01.061Z,65.10
2022-11-10T09:53:06.145Z,65.20
2022-11-10T09:54:29.542Z,65.40
2022-11-10T09:55:39.789Z,65.30
2022-11-10T09:56:42.979Z,65.70
2022-11-10T09:57:48.944Z,65.60
2022-11-10T09:58:53.947Z,65.50
2022-11-10T09:59:57.694Z,66.00
2022-11-10T10:01:11.920Z,65.60
2022-11-10T10:02:25.391Z,65.40
2022-11-10T10:03:32.902Z,65.60
2022-11-10T10:05:04.713Z,65.80
2022-11-10T10:06:13.189Z,65.90
2022-11-10T10:07:23.657Z,65.60
2022-11-10T10:08:41.288Z,65.80
2022-11-10T10:09:55.971Z,65.70
2022-11-10T10:11:14.391Z,65.70
2022-11-10T10:12:32.034Z,65.50
2022-11-10T10:14:06.264Z,65.70
2022-11-10T10:15:25.848Z,65.80
2022-11-10T10:16:39.205Z,66.10
2022-11-10T10:17:54.372Z,66.10
2022-11-10T10:19:06.150Z,66.20
2022-11-10T10:20:19.783Z,66.00
2022-11-10T10:21:38.789Z,65.80
2022-11-10T10:23:02.203Z,65.40
2022-11-10T10:24:13.880Z,65.40
2022-11-10T10:25:23.103Z,65.50
2022-11-10T10:26:29.791Z,65.60
2022-11-10T10:27:39.626Z,65.70
2022-11-10T10:28:47.586Z,65.60
2022-11-10T10:29:52.081Z,65.70
2022-11-10T10:31:02.287Z,65.50
2022-11-10T10:32:06.818Z,65.40
2022-11-10T10:33:16.389Z,65.90
2022-11-10T10:34:22.282Z,65.60
2022-11-10T10:35:26.787Z,65.50
2022-11-10T10:36:31.995Z,65.10
2022-11-10T10:37:45.106Z,65.10
2022-11-10T10:38:53.767Z,65.30
2022-11-10T10:39:57.397Z,64.90
2022-11-10T10:41:11.417Z,65.20
2022-11-10T10:42:23.651Z,65.30
2022-11-10T10:43:25.785Z,64.80
2022-11-10T10:44:28.953Z,64.70
2022-11-10T10:45:38.128Z,65.10
2022-11-10T10:46:46.570Z,65.10
2022-11-10T10:48:01.363Z,64.90
2022-11-10T10:49:28.209Z,64.80
2022-11-10T10:50:34.984Z,64.70
2022-11-10T10:51:38.392Z,64.30
2022-11-10T10:52:41.486Z,64.10
2022-11-10T10:53:48.925Z,63.80
2022-11-10T10:55:01.982Z,63.90
2022-11-10T10:56:13.260Z,64.50
2022-11-10T10:57:23.439Z,64.20
2022-11-10T10:58:29.924Z,64.60
2022-11-10T10:59:34.995Z,64.50
2022-11-10T11:00:46.437Z,64.20
2022-11-10T11:01:55.283Z,63.90
2022-11-10T11:03:05.731Z,64.40
2022-11-10T11:04:31.129Z,64.60
2022-11-10T11:05:34.277Z,63.80
2022-11-10T11:06:37.751Z,63.70
2022-11-10T11:07:41.001Z,63.60
2022-11-10T11:09:01.948Z,63.10
2022-11-10T11:10:18.752Z,63.10
2022-11-10T11:11:27.073Z,63.00
2022-11-10T11:12:32.937Z,62.80
2022-11-10T11:13:36.006Z,62.40
2022-11-10T11:14:44.710Z,62.40
2022-11-10T11:15:58.655Z,62.40
2022-11-10T11:17:04.034Z,62.90
2022-11-10T11:18:14.979Z,63.00
2022-11-10T11:19:20.147Z,63.00
2022-11-10T11:20:37.899Z,63.10
2022-11-10T11:22:02.852Z,63.20
2022-11-10T11:23:25.034Z,63.30
2022-11-10T11:24:37.749Z,63.40
2022-11-10T11:25:45.010Z,63.80
2022-11-10T11:26:57.995Z,63.80
2022-11-10T11:28:15.661Z,63.50
2022-11-10T11:29:37.396Z,63.10
2022-11-10T11:30:57.713Z,62.90
2022-11-10T11:32:20.405Z,63.30
2022-11-10T11:33:34.539Z,63.60
2022-11-10T11:34:48.698Z,62.60
2022-11-10T11:35:59.636Z,62.50
2022-11-10T11:37:18.015Z,62.70
2022-11-10T11:38:32.712Z,63.00
2022-11-10T11:39:56.406Z,63.30
2022-11-10T11:41:20.296Z,63.00
2022-11-10T11:42:43.303Z,63.00
2022-11-10T11:44:37.859Z,62.80
2022-11-10T11:46:00.183Z,63.00
2022-11-10T11:47:19.990Z,62.20
2022-11-10T11:48:50.970Z,62.00
2022-11-10T11:50:14.671Z,62.10
2022-11-10T11:51:27.941Z,62.10
2022-11-10T11:52:37.880Z,62.20
2022-11-10T11:54:04.380Z,62.80
2022-11-10T11:55:28.173Z,62.90
2022-11-10T11:56:35.083Z,62.20
2022-11-10T11:57:55.037Z,62.60
2022-11-10T11:59:12.721Z,62.90
2022-11-10T12:00:18.157Z,62.90
2022-11-10T12:01:40.814Z,62.50
2022-11-10T12:03:26.222Z,61.80
2022-11-10T12:05:01.685Z,61.90
2022-11-10T12:06:22.878Z,62.00
2022-11-10T12:07:45.088Z,61.90
2022-11-10T12:09:00.805Z,62.10
2022-11-10T12:10:24.263Z,62.30
2022-11-10T12:11:41.338Z,62.50
2022-11-10T12:13:04.674Z,62.30
2022-11-10T12:14:19.020Z,62.10
2022-11-10T12:15:34.173Z,62.00
2022-11-10T12:16:39.623Z,62.20
2022-11-10T12:17:52.505Z,62.30
2022-11-10T12:19:10.325Z,62.40
2022-11-10T12:20:34.748Z,62.50
2022-11-10T12:21:44.819Z,62.00
2022-11-10T12:22:59.887Z,62.10
2022-11-10T12:24:34.990Z,62.30
2022-11-10T12:25:48.068Z,62.20
2022-11-10T12:26:58.983Z,62.10
2022-11-10T12:28:12.905Z,61.60
2022-11-10T12:29:27.418Z,61.30
2022-11-10T12:30:34.026Z,61.00
2022-11-10T12:31:41.485Z,60.70
2022-11-10T12:32:51.099Z,61.10
2022-11-10T12:34:01.223Z,60.30
2022-11-10T12:35:14.160Z,60.90
2022-11-10T12:36:22.033Z,60.90
2022-11-10T12:37:34.455Z,61.00
2022-11-10T12:38:47.407Z,61.20
2022-11-10T12:39:59.302Z,60.90
2022-11-10T12:41:10.386Z,60.90
2022-11-10T12:42:19.784Z,60.70
2022-11-10T12:43:34.849Z,60.80
2022-11-10T12:44:46.887Z,60.20
2022-11-10T12:45:57.676Z,60.00
2022-11-10T12:47:07.536Z,60.00
2022-11-10T12:48:14.001Z,60.00
2022-11-10T12:49:24.976Z,60.10
2022-11-10T12:50:41.529Z,60.00
2022-11-10T12:51:54.774Z,60.40
2022-11-10T12:53:03.300Z,60.10
2022-11-10T12:54:16.272Z,59.80
2022-11-10T12:55:37.969Z,59.70
2022-11-10T12:56:48.124Z,60.00
2022-11-10T12:57:51.427Z,59.90
2022-11-10T12:59:16.938Z,60.00
2022-11-10T13:00:30.117Z,59.60
2022-11-10T13:01:32.500Z,59.50
2022-11-10T13:02:42.796Z,59.60
2022-11-10T13:03:57.824Z,59.60
2022-11-10T13:05:31.165Z,59.40
2022-11-10T13:06:36.777Z,59.70
2022-11-10T13:07:39.273Z,60.40
2022-11-10T13:08:49.714Z,59.40
2022-11-10T13:09:52.922Z,59.20
2022-11-10T13:10:59.977Z,58.60
2022-11-10T13:12:21.778Z,58.90
2022-11-10T13:13:26.100Z,58.60
2022-11-10T13:14:31.459Z,58.30
2022-11-10T13:15:50.293Z,58.10
2022-11-10T13:16:54.370Z,57.60
2022-11-10T13:17:57.604Z,57.60
2022-11-10T13:19:02.326Z,58.00
2022-11-10T13:20:27.902Z,58.10
2022-11-10T13:22:09.906Z,58.30
2022-11-10T13:23:28.054Z,57.80
2022-11-10T13:24:32.663Z,57.90
2022-11-10T13:26:03.452Z,57.90
2022-11-10T13:27:11.674Z,57.40
2022-11-10T13:28:15.120Z,57.70
2022-11-10T13:29:43.974Z,57.90
2022-11-10T13:30:48.915Z,57.90
2022-11-10T13:31:53.991Z,57.10
2022-11-10T13:33:35.360Z,57.50
2022-11-10T13:34:39.753Z,57.50
2022-11-10T13:35:55.463Z,57.50
2022-11-10T13:36:58.631Z,57.60
2022-11-10T13:38:03.212Z,57.20
2022-11-10T13:39:23.635Z,57.20
2022-11-10T13:40:33.886Z,57.20
2022-11-10T13:41:47.491Z,56.70
2022-11-10T13:43:13.504Z,56.70
2022-11-10T13:44:25.220Z,56.40
2022-11-10T13:45:30.923Z,56.30
2022-11-10T13:46:44.154Z,56.40
2022-11-10T13:48:17.980Z,56.70
2022-11-10T13:49:42.056Z,56.50
2022-11-10T13:50:55.319Z,56.50
2022-11-10T13:52:10.553Z,56.80
2022-11-10T13:53:29.530Z,56.50
2022-11-10T13:54:58.849Z,56.20
2022-11-10T13:56:18.402Z,56.50
2022-11-10T13:57:30.155Z,56.40
2022-11-10T13:58:36.609Z,56.50
2022-11-10T13:59:49.160Z,56.40
2022-11-10T14:01:22.923Z,56.70
2022-11-10T14:02:54.499Z,56.80
2022-11-10T14:04:00.579Z,57.10
2022-11-10T14:05:04.909Z,56.90
2022-11-10T14:06:15.168Z,57.20
2022-11-10T14:07:20.625Z,56.90
2022-11-10T14:08:32.209Z,56.90
2022-11-10T14:09:40.553Z,56.90
2022-11-10T14:10:48.789Z,57.20
2022-11-10T14:11:57.681Z,57.30
2022-11-10T14:13:08.189Z,57.40
2022-11-10T14:14:19.700Z,57.40
2022-11-10T14:15:28.574Z,57.40
2022-11-10T14:16:35.374Z,57.50
2022-11-10T14:17:44.841Z,57.20
2022-11-10T14:18:55.312Z,57.20
2022-11-10T14:19:58.560Z,57.50